Time;durP1;ratioP1;P1;durP2;ratioP2;P2;SDS_P1;SDS_P2;PMS_P1;PMS_P2;Temp;Humidity;BMP_temperature;BMP_pressure;BME280_temperature;BME280_humidity;BME280_pressure;Samples;Min_cycle;Max_cycle;Signal;HPM_P1;HPM_P2
2021/04/08 00:00:37;;;;;;;1.25;0.93;;;;;;;0.70;65.97;97620.55;1666994;83;21183;-64
2021/04/08 00:03:07;;;;;;;1.40;1.07;;;;;;;0.62;64.68;97621.45;1657995;83;21155;-64
2021/04/08 00:05:35;;;;;;;1.92;0.90;;;;;;;0.62;64.68;97621.45;1665494;84;21191;-64
2021/04/08 00:08:03;;;;;;;5.33;1.40;;;;;;;0.57;64.82;97621.72;1673636;83;21143;-64
2021/04/08 00:10:31;;;;;;;2.12;1.12;;;;;;;0.52;66.49;97622.88;1658105;84;21227;-64
2021/04/08 00:12:59;;;;;;;2.58;1.87;;;;;;;0.47;66.13;97625.70;1658061;84;21636;-64
2021/04/08 00:15:28;;;;;;;1.25;1.05;;;;;;;0.43;65.70;97625.51;1661869;84;21261;-64
2021/04/08 00:17:56;;;;;;;2.77;1.37;;;;;;;0.39;66.16;97629.15;1614717;87;21202;-64
2021/04/08 00:20:24;;;;;;;1.87;1.27;;;;;;;0.33;65.29;97621.41;1667285;83;21242;-64
2021/04/08 00:22:52;;;;;;;1.77;1.00;;;;;;;0.29;65.44;97621.20;1669087;84;21207;-64
2021/04/08 00:25:20;;;;;;;3.08;1.67;;;;;;;0.24;66.50;97627.02;1663830;84;21174;-63
2021/04/08 00:27:48;;;;;;;1.32;0.93;;;;;;;0.17;65.84;97634.67;1673079;84;21203;-63
2021/04/08 00:30:18;;;;;;;1.15;0.90;;;;;;;0.17;65.84;97634.67;1674772;84;21197;-63
2021/04/08 00:32:46;;;;;;;2.50;1.32;;;;;;;0.15;66.93;97633.95;1628979;86;21271;-63
2021/04/08 00:35:14;;;;;;;1.60;0.68;;;;;;;0.12;67.02;97634.58;1668707;84;21179;-63
2021/04/08 00:37:42;;;;;;;0.95;0.72;;;;;;;0.10;66.90;97643.59;1663924;84;21219;-64
2021/04/08 00:40:13;;;;;;;2.45;0.65;;;;;;;-0.01;67.89;97639.55;1662286;84;21154;-63
2021/04/08 00:42:43;;;;;;;0.90;0.90;;;;;;;-0.01;67.89;97639.55;1673584;84;21194;-64
2021/04/08 00:45:12;;;;;;;0.30;0.30;;;;;;;0.00;68.08;97649.65;1675957;84;21174;-64
2021/04/08 00:47:40;;;;;;;1.85;0.72;;;;;;;-0.03;68.84;97650.27;1664713;84;21199;-64
2021/04/08 00:50:30;;;;;;;2.22;1.65;;;;;;;-0.12;70.42;97650.33;1671734;83;21186;-63
2021/04/08 00:53:06;;;;;;;1.20;1.10;;;;;;;-0.26;70.30;97646.44;1637125;84;21207;-63
2021/04/08 00:55:39;;;;;;;1.65;1.42;;;;;;;-0.26;70.30;97646.44;1665505;85;21136;-67
2021/04/08 00:58:08;;;;;;;2.10;1.50;;;;;;;-0.28;69.80;97654.65;1685843;84;21168;-64
2021/04/08 01:00:43;;;;;;;1.95;1.12;;;;;;;-0.37;71.07;97656.41;1677167;84;21211;-63
2021/04/08 01:03:12;;;;;;;3.83;1.90;;;;;;;-0.46;72.52;97655.63;1671249;84;21242;-64
2021/04/08 01:05:40;;;;;;;2.42;1.60;;;;;;;-0.52;71.38;97652.97;1647157;86;21203;-64
2021/04/08 01:08:08;;;;;;;1.70;1.60;;;;;;;-0.56;70.73;97657.86;1648760;85;21235;-64
2021/04/08 01:10:36;;;;;;;1.85;1.30;;;;;;;-0.62;71.09;97659.44;1644447;85;21210;-64
2021/04/08 01:13:31;;;;;;;3.95;1.47;;;;;;;-0.65;70.47;97663.44;1645984;86;21163;-64
2021/04/08 01:16:04;;;;;;;1.37;1.27;;;;;;;-0.66;70.00;97666.88;1641863;84;21608;-65
2021/04/08 01:18:59;;;;;;;2.27;1.67;;;;;;;-0.66;70.15;97663.54;1637941;84;21190;-62
2021/04/08 01:21:39;;;;;;;4.87;2.40;;;;;;;-0.70;70.39;97667.16;1608557;85;21265;-63
2021/04/08 01:24:28;;;;;;;2.90;1.75;;;;;;;-0.76;70.55;97676.37;1652543;84;21199;-63
2021/04/08 01:27:36;;;;;;;1.80;1.65;;;;;;;-0.80;70.85;97682.09;1625388;87;21223;-64
2021/04/08 01:30:12;;;;;;;1.50;1.40;;;;;;;-0.85;71.70;97685.77;1632676;85;21195;-63
2021/04/08 01:32:44;;;;;;;2.55;1.98;;;;;;;-0.92;72.37;97690.38;1644248;85;21175;-62
2021/04/08 01:35:15;;;;;;;0.72;0.65;;;;;;;-0.97;72.20;97691.87;1642119;84;21203;-64
2021/04/08 01:38:06;;;;;;;1.60;1.25;;;;;;;-1.00;71.68;97698.86;1650246;85;21169;-68
2021/04/08 01:40:34;;;;;;;1.02;1.02;;;;;;;-1.01;71.53;97699.30;1736716;81;21640;-64
2021/04/08 01:43:05;;;;;;;1.35;1.15;;;;;;;-1.01;71.16;97706.95;1715480;81;21235;-64
2021/04/08 01:45:34;;;;;;;1.42;1.32;;;;;;;-1.01;71.12;97711.22;1719637;80;21576;-64
2021/04/08 01:48:06;;;;;;;1.20;1.02;;;;;;;-1.02;70.85;97718.06;1716690;81;21127;-64
2021/04/08 01:50:35;;;;;;;0.90;0.90;;;;;;;-1.05;73.03;97722.50;1725274;81;21228;-64
2021/04/08 01:53:05;;;;;;;1.32;1.15;;;;;;;-1.12;73.84;97731.33;1733166;81;21168;-64
2021/04/08 01:55:36;;;;;;;1.32;1.22;;;;;;;-1.12;74.35;97735.98;1725387;81;21191;-65
2021/04/08 01:58:06;;;;;;;0.93;0.88;;;;;;;-1.10;73.73;97739.73;1728576;80;21199;-63
2021/04/08 02:00:36;;;;;;;1.47;1.17;;;;;;;-1.09;73.10;97743.94;1711448;81;21608;-64
2021/04/08 02:03:06;;;;;;;1.47;1.07;;;;;;;-1.07;72.62;97744.22;1723405;81;21615;-64
2021/04/08 02:05:35;;;;;;;2.47;1.45;;;;;;;-1.05;72.45;97742.41;1711097;81;21164;-64
2021/04/08 02:08:05;;;;;;;1.80;1.70;;;;;;;-1.07;72.28;97745.50;1700163;83;21810;-64
2021/04/08 02:10:35;;;;;;;3.45;1.90;;;;;;;-1.06;71.76;97752.25;1695318;82;21781;-64
2021/04/08 02:13:07;;;;;;;1.27;1.17;;;;;;;-1.10;71.75;97751.20;1719486;81;21604;-64
2021/04/08 02:15:35;;;;;;;2.08;1.52;;;;;;;-1.15;71.41;97756.97;1711306;81;21242;-64
2021/04/08 02:18:04;;;;;;;1.52;1.12;;;;;;;-1.15;71.37;97765.88;1730681;80;21166;-63
2021/04/08 02:20:35;;;;;;;2.45;1.60;;;;;;;-1.17;71.44;97766.42;1706744;81;21608;-64
2021/04/08 02:23:05;;;;;;;3.02;1.52;;;;;;;-1.19;71.50;97763.11;1708303;82;21215;-65
2021/04/08 02:25:35;;;;;;;1.62;1.52;;;;;;;-1.19;71.56;97767.77;1698544;81;21266;-68
2021/04/08 02:28:28;;;;;;;0.95;0.65;;;;;;;-1.22;71.26;97769.64;1724271;81;21163;-69
2021/04/08 02:30:59;;;;;;;3.52;1.87;;;;;;;-1.23;71.48;97771.36;1632149;85;21227;-64
2021/04/08 02:33:29;;;;;;;2.17;1.00;;;;;;;-1.25;71.16;97776.16;1633717;86;21187;-66
2021/04/08 02:36:01;;;;;;;2.12;1.22;;;;;;;-1.27;71.21;97775.40;1631404;84;21242;-63
2021/04/08 02:38:34;;;;;;;2.58;1.37;;;;;;;-1.30;71.26;97784.47;1642938;85;21631;-63
2021/04/08 02:41:08;;;;;;;0.70;0.70;;;;;;;-1.32;70.62;97786.28;1642632;84;21192;-63
2021/04/08 02:43:37;;;;;;;1.70;1.60;;;;;;;-1.35;70.94;97792.77;1605581;86;21281;-65
2021/04/08 02:46:07;;;;;;;1.60;1.07;;;;;;;-1.38;70.24;97791.66;1627246;84;21195;-62
2021/04/08 02:48:35;;;;;;;0.90;0.90;;;;;;;-1.40;70.74;97794.73;1638943;86;21210;-64
2021/04/08 02:51:11;;;;;;;1.37;1.27;;;;;;;-1.42;70.37;97799.06;1649344;86;21194;-64
2021/04/08 02:54:07;;;;;;;0.70;0.53;;;;;;;-1.47;70.83;97798.83;1651474;84;21195;-65
2021/04/08 02:59:51;;;;;;;0.37;0.37;;;;;;;-1.54;71.64;97808.11;1616921;86;21231;-63
2021/04/08 03:02:26;;;;;;;2.00;0.93;;;;;;;-1.59;71.01;97808.77;1623070;86;21737;-63
2021/04/08 03:04:57;;;;;;;0.85;0.85;;;;;;;-1.64;69.97;97812.83;1608630;86;21274;-62
2021/04/08 03:07:36;;;;;;;1.27;0.70;;;;;;;-1.69;70.89;97810.93;1606475;87;21159;-63
2021/04/08 03:10:09;;;;;;;3.87;1.52;;;;;;;-1.71;70.50;97814.45;1637978;86;21159;-63
2021/04/08 03:12:45;;;;;;;1.27;1.02;;;;;;;-1.73;70.81;97821.32;1628226;86;21199;-64
2021/04/08 03:15:18;;;;;;;1.20;1.10;;;;;;;-1.75;70.85;97821.86;1635166;86;21279;-64
2021/04/08 03:17:48;;;;;;;2.12;1.82;;;;;;;-1.76;71.47;97822.30;1607539;87;21149;-64
2021/04/08 03:20:17;;;;;;;1.12;1.02;;;;;;;-1.80;71.43;97822.06;1609923;87;21628;-64
2021/04/08 03:22:46;;;;;;;1.72;1.05;;;;;;;-1.81;71.23;97831.86;1635754;85;21220;-64
2021/04/08 03:25:17;;;;;;;1.92;1.77;;;;;;;-1.83;70.59;97836.20;1618902;86;21198;-64
2021/04/08 03:27:45;;;;;;;1.85;1.32;;;;;;;-1.83;70.98;97837.92;1586075;88;21368;-65
2021/04/08 03:30:20;;;;;;;1.27;0.88;;;;;;;-1.85;70.36;97838.42;1624049;86;21180;-68
2021/04/08 03:32:48;;;;;;;1.77;1.37;;;;;;;-1.86;70.83;97842.69;1643167;85;21217;-64
2021/04/08 03:35:17;;;;;;;4.90;1.12;;;;;;;-1.87;70.74;97846.59;1619126;87;21248;-65
2021/04/08 03:37:45;;;;;;;1.10;0.85;;;;;;;-1.88;71.13;97845.77;1598123;86;21617;-63
2021/04/08 03:40:35;;;;;;;0.62;0.62;;;;;;;-1.92;71.93;97850.17;1651529;85;21281;-64
2021/04/08 03:43:04;;;;;;;1.27;1.17;;;;;;;-1.92;71.99;97846.80;1585997;87;21755;-64
2021/04/08 03:45:32;;;;;;;0.70;0.65;;;;;;;-1.93;72.66;97851.05;1603462;87;21670;-63
2021/04/08 03:48:26;;;;;;;1.52;1.32;;;;;;;-1.89;73.41;97855.55;1630665;86;21180;-64
2021/04/08 03:50:56;;;;;;;1.37;1.17;;;;;;;-1.87;72.43;97856.33;1591820;87;21623;-63
2021/04/08 03:53:46;;;;;;;0.98;0.88;;;;;;;-1.86;71.45;97855.85;1629234;86;21229;-63
2021/04/08 03:56:15;;;;;;;1.77;1.67;;;;;;;-1.85;71.36;97849.88;1621369;85;21631;-63
2021/04/08 03:59:04;;;;;;;2.30;1.67;;;;;;;-1.86;71.12;97857.95;1644612;84;21273;-63
2021/04/08 04:01:37;;;;;;;1.30;0.93;;;;;;;-1.87;71.21;97860.14;1633177;87;21163;-64
2021/04/08 04:04:08;;;;;;;1.95;1.42;;;;;;;-1.89;73.19;97863.19;1633765;87;21194;-65
2021/04/08 04:06:39;;;;;;;1.50;1.40;;;;;;;-1.96;73.09;97868.18;1591694;88;21231;-64
2021/04/08 04:09:28;;;;;;;0.95;0.85;;;;;;;-1.96;73.37;97868.18;1590746;88;21260;-64
2021/04/08 04:12:00;;;;;;;1.90;1.80;;;;;;;-1.95;72.64;97867.30;1635174;87;21192;-62
2021/04/08 04:14:29;;;;;;;2.10;1.10;;;;;;;-1.93;72.39;97870.58;1618044;87;21213;-65
2021/04/08 04:16:59;;;;;;;3.47;1.65;;;;;;;-1.92;71.54;97870.97;1625283;86;21211;-64
2021/04/08 04:19:28;;;;;;;1.82;0.78;;;;;;;-1.92;72.19;97864.61;1584184;87;21192;-64
2021/04/08 04:21:56;;;;;;;3.00;2.52;;;;;;;-1.94;71.70;97862.56;1621880;85;21263;-62
2021/04/08 04:24:24;;;;;;;2.58;1.55;;;;;;;-1.92;71.71;97872.24;1631481;87;21633;-68
2021/04/08 04:26:52;;;;;;;1.85;1.65;;;;;;;-1.89;71.50;97868.73;1625968;87;21186;-64
2021/04/08 04:29:21;;;;;;;1.92;1.32;;;;;;;-1.86;71.81;97869.85;1632912;87;21194;-64
2021/04/08 04:31:49;;;;;;;2.35;2.15;;;;;;;-1.82;71.85;97874.73;1627021;87;21211;-64
2021/04/08 04:34:17;;;;;;;1.72;1.62;;;;;;;-1.80;70.92;97878.06;1631857;87;21214;-63
2021/04/08 04:36:50;;;;;;;3.60;2.67;;;;;;;-1.78;70.89;97883.06;1583632;89;21203;-64
2021/04/08 04:39:18;;;;;;;1.80;1.65;;;;;;;-1.75;69.81;97884.22;1579631;88;21209;-64
2021/04/08 04:41:46;;;;;;;1.75;0.88;;;;;;;-1.73;69.89;97882.42;1622195;87;21167;-63
2021/04/08 04:44:14;;;;;;;1.25;1.17;;;;;;;-1.72;69.17;97882.36;1624114;87;21596;-64
2021/04/08 04:46:42;;;;;;;2.08;1.90;;;;;;;-1.70;68.62;97889.47;1584298;87;21231;-64
2021/04/08 04:49:11;;;;;;;1.30;1.22;;;;;;;-1.66;68.61;97888.44;1623741;87;21167;-64
2021/04/08 04:51:39;;;;;;;2.15;1.37;;;;;;;-1.62;68.51;97895.04;1625266;87;21224;-64
2021/04/08 04:54:07;;;;;;;1.98;1.70;;;;;;;-1.57;68.96;97896.94;1627788;87;21235;-64
2021/04/08 04:56:36;;;;;;;1.57;1.45;;;;;;;-1.51;69.90;97893.27;1621161;87;21204;-64
2021/04/08 04:59:04;;;;;;;2.90;1.98;;;;;;;-1.50;71.03;97897.03;1626415;87;21179;-64
2021/04/08 05:01:32;;;;;;;2.92;2.17;;;;;;;-1.49;71.81;97892.33;1581893;88;21200;-62
2021/04/08 05:10:56;;;;;;;5.72;2.58;;;;;;;-1.48;74.57;97899.05;1602693;87;21581;-61
2021/04/08 05:20:18;;;;;;;3.58;1.85;;;;;;;-1.17;72.64;97906.56;1619810;88;21718;-62
2021/04/08 05:44:15;;;;;;;2.05;1.30;;;;;;;-0.03;67.80;97916.58;1707157;81;21182;-65
2021/04/08 05:46:44;;;;;;;1.27;1.17;;;;;;;0.16;65.44;97922.01;1704677;82;21659;-64
2021/04/08 05:49:12;;;;;;;1.65;1.10;;;;;;;0.44;63.14;97923.05;1710895;81;21176;-64
2021/04/08 05:51:40;;;;;;;3.35;1.32;;;;;;;0.44;63.14;97923.05;1739270;80;21144;-65
2021/04/08 05:54:08;;;;;;;0.88;0.75;;;;;;;0.56;62.95;97920.29;1760982;80;21214;-65
2021/04/08 05:56:36;;;;;;;0.75;0.60;;;;;;;0.59;61.68;97918.84;1754081;80;21158;-65
2021/04/08 05:59:18;;;;;;;0.90;0.80;;;;;;;0.83;59.49;97930.30;1733410;81;21282;-66
2021/04/08 06:01:46;;;;;;;2.05;1.62;;;;;;;0.83;59.49;97930.30;1719258;81;21239;-65
2021/04/08 06:04:14;;;;;;;1.40;1.30;;;;;;;0.91;59.13;97926.88;1765343;79;21555;-65
2021/04/08 06:06:42;;;;;;;1.98;1.12;;;;;;;1.05;59.65;97927.37;1756063;80;21543;-65
2021/04/08 06:09:11;;;;;;;3.45;0.93;;;;;;;1.20;59.27;97932.12;1755956;78;21283;-65
2021/04/08 06:11:39;;;;;;;1.60;1.02;;;;;;;1.33;59.03;97927.95;1750213;80;21187;-65
2021/04/08 06:14:08;;;;;;;2.60;2.08;;;;;;;1.47;58.80;97930.56;1762469;79;21159;-66
2021/04/08 06:16:36;;;;;;;3.60;1.70;;;;;;;1.58;59.12;97935.06;1757551;79;21131;-65
2021/04/08 06:19:04;;;;;;;3.40;2.52;;;;;;;1.65;59.31;97940.19;1753290;78;21252;-66
2021/04/08 06:21:32;;;;;;;3.93;2.97;;;;;;;1.69;59.23;97937.38;1750849;80;21181;-65
2021/04/08 06:24:00;;;;;;;1.67;1.50;;;;;;;1.67;59.47;97941.77;1755116;79;21166;-66
2021/04/08 06:26:28;;;;;;;4.10;3.12;;;;;;;1.74;58.54;97946.08;1752143;80;21124;-65
2021/04/08 06:28:56;;;;;;;3.20;2.12;;;;;;;1.87;58.36;97940.59;1757046;79;21222;-66
2021/04/08 06:31:27;;;;;;;3.85;2.90;;;;;;;1.91;57.70;97948.01;1758620;78;21555;-65
2021/04/08 06:33:55;;;;;;;5.03;2.25;;;;;;;2.03;56.68;97943.91;1763427;80;21820;-65
2021/04/08 06:36:24;;;;;;;4.17;2.27;;;;;;;2.09;55.94;97945.30;1760153;78;21586;-68
2021/04/08 06:38:52;;;;;;;2.42;1.57;;;;;;;2.18;55.39;97944.27;1751718;79;21579;-67
2021/04/08 06:41:22;;;;;;;3.80;2.27;;;;;;;2.24;53.35;97942.64;1747727;79;21104;-67
2021/04/08 06:43:53;;;;;;;3.35;1.42;;;;;;;2.43;54.05;97943.64;1758350;79;21194;-68
2021/04/08 06:46:24;;;;;;;3.02;1.67;;;;;;;2.63;54.29;97940.69;1754386;80;21150;-67
2021/04/08 06:49:22;;;;;;;1.67;1.27;;;;;;;2.80;51.44;97943.02;1755593;79;21717;-67
2021/04/08 06:51:54;;;;;;;3.40;1.77;;;;;;;3.00;53.25;97934.53;1696780;83;21163;-67
2021/04/08 06:54:23;;;;;;;3.67;1.45;;;;;;;3.19;52.81;97939.69;1680553;83;21831;-68
2021/04/08 06:56:51;;;;;;;3.27;1.55;;;;;;;3.38;52.97;97943.21;1681516;83;21225;-68
2021/04/08 06:59:20;;;;;;;1.50;1.12;;;;;;;3.56;52.82;97945.86;1697454;83;21174;-68
2021/04/08 07:04:30;;;;;;;2.02;1.25;;;;;;;3.85;50.57;97945.25;1746043;80;21221;-66
2021/04/08 07:07:00;;;;;;;1.60;1.00;;;;;;;4.01;48.69;97956.13;1772041;78;21227;-67
2021/04/08 07:09:28;;;;;;;1.57;0.90;;;;;;;4.13;49.24;97951.45;1762194;78;21245;-67
2021/04/08 07:12:01;;;;;;;1.20;0.85;;;;;;;4.22;44.43;97950.02;1762713;79;21142;-66
2021/04/08 07:14:30;;;;;;;0.50;0.50;;;;;;;4.38;48.22;97964.77;1775519;79;21133;-66
2021/04/08 07:17:00;;;;;;;0.60;0.50;;;;;;;4.44;45.80;97955.80;1740835;80;21162;-66
2021/04/08 07:19:35;;;;;;;1.35;0.65;;;;;;;4.50;45.35;97965.23;1662989;80;21300;-65
2021/04/08 07:22:03;;;;;;;1.82;0.60;;;;;;;4.54;43.57;97968.41;1741098;80;21531;-67
2021/04/08 07:24:46;;;;;;;1.75;0.60;;;;;;;4.62;45.16;97967.42;1722265;81;21152;-65
2021/04/08 07:27:21;;;;;;;1.27;0.53;;;;;;;4.65;42.83;97972.34;1683762;83;21231;-67
2021/04/08 07:29:58;;;;;;;12.33;6.60;;;;;;;4.35;43.78;97908.89;1710084;82;21271;-65
2021/04/08 07:32:33;;;;;;;20.55;9.65;;;;;;;4.77;44.92;97971.04;1728391;80;21195;-64
2021/04/08 07:38:15;;;;;;;3.72;1.62;;;;;;;4.92;41.88;97978.15;1718059;82;21643;-67
2021/04/08 07:40:48;;;;;;;1.30;0.70;;;;;;;5.03;44.26;97979.50;1724873;81;21255;-67
2021/04/08 07:43:16;;;;;;;1.67;1.22;;;;;;;5.10;41.26;97983.74;1736564;81;21178;-67
2021/04/08 07:45:44;;;;;;;0.60;0.60;;;;;;;5.12;41.71;97977.58;1716079;81;21240;-67
2021/04/08 07:48:12;;;;;;;0.78;0.50;;;;;;;5.22;42.35;97973.41;1717939;82;21195;-67
2021/04/08 07:50:44;;;;;;;3.83;1.27;;;;;;;5.26;38.45;97970.14;1723088;81;21225;-65
2021/04/08 07:53:20;;;;;;;3.17;1.25;;;;;;;5.42;40.00;97970.70;1697568;82;21246;-67
2021/04/08 07:55:50;;;;;;;2.10;0.50;;;;;;;5.56;41.34;97979.52;1726849;81;21662;-67
2021/04/08 07:58:19;;;;;;;0.50;0.40;;;;;;;5.57;40.39;97976.02;1719160;81;21156;-67
2021/04/08 08:00:54;;;;;;;0.57;0.57;;;;;;;5.73;40.83;97984.28;1712694;81;21162;-67
2021/04/08 08:03:27;;;;;;;;;;;;;;;5.83;40.59;97979.75;1720645;80;21222;-67
2021/04/08 08:05:59;;;;;;;1.12;0.57;;;;;;;5.92;40.61;97988.94;1729512;81;20180;-67
2021/04/08 08:08:41;;;;;;;0.82;0.50;;;;;;;6.01;39.95;97984.86;1731084;81;21188;-67
2021/04/08 08:11:16;;;;;;;0.65;0.55;;;;;;;6.01;38.59;97990.84;1731419;81;21243;-67
2021/04/08 08:13:56;;;;;;;2.47;0.90;;;;;;;6.13;38.53;97993.80;1730262;81;21202;-66
2021/04/08 08:16:31;;;;;;;0.30;0.30;;;;;;;6.26;39.00;97992.89;1720017;82;21652;-66
2021/04/08 08:19:21;;;;;;;1.37;0.80;;;;;;;6.40;39.27;97996.53;1640628;84;21183;-65
2021/04/08 08:21:49;;;;;;;1.57;0.80;;;;;;;6.51;39.63;98000.41;1636386;84;21607;-65
2021/04/08 08:24:19;;;;;;;0.90;0.57;;;;;;;6.64;39.34;98003.70;1640024;85;21636;-65
2021/04/08 08:26:50;;;;;;;0.57;0.50;;;;;;;6.74;38.25;97997.36;1628467;85;21262;-65
2021/04/08 08:29:26;;;;;;;0.33;0.33;;;;;;;6.81;38.42;97998.55;1649943;85;21136;-65
2021/04/08 08:32:03;;;;;;;1.67;0.55;;;;;;;6.89;37.26;98003.45;1645829;85;21257;-65
2021/04/08 08:34:35;;;;;;;0.88;0.57;;;;;;;6.96;38.19;97998.66;1644318;85;21326;-64
2021/04/08 08:39:50;;;;;;;0.80;0.50;;;;;;;7.02;36.48;98016.23;1655273;85;21183;-65
2021/04/08 08:42:33;;;;;;;1.02;0.85;;;;;;;7.11;36.65;98013.77;1656021;86;21195;-65
2021/04/08 08:45:28;;;;;;;1.52;0.70;;;;;;;7.25;36.77;98010.09;1665974;83;21223;-66
2021/04/08 08:47:59;;;;;;;1.65;0.33;;;;;;;7.36;37.24;98010.06;1670368;83;21227;-66
2021/04/08 08:50:28;;;;;;;3.05;0.70;;;;;;;7.28;35.84;98015.48;1699521;83;21274;-66
2021/04/08 08:52:56;;;;;;;0.82;0.53;;;;;;;7.29;36.97;98002.92;1696140;83;21173;-66
2021/04/08 08:55:24;;;;;;;1.00;0.40;;;;;;;7.33;35.55;98014.66;1697314;83;21143;-65
2021/04/08 08:57:55;;;;;;;0.20;0.10;;;;;;;7.36;36.00;98016.98;1677049;83;21199;-68
2021/04/08 09:00:28;;;;;;;0.35;0.33;;;;;;;7.33;33.77;98004.32;1694323;83;21163;-67
2021/04/08 09:03:01;;;;;;;5.55;0.72;;;;;;;7.21;32.03;98033.69;1699419;82;21178;-68
2021/04/08 09:05:37;;;;;;;1.32;0.50;;;;;;;7.23;33.61;98017.16;1696196;82;21248;-68
2021/04/08 09:11:05;;;;;;;4.67;0.50;;;;;;;7.35;31.16;98024.41;1689176;83;21559;-66
2021/04/08 09:13:33;;;;;;;1.10;0.70;;;;;;;7.46;29.78;98028.25;1697730;83;21188;-65
2021/04/08 09:16:02;;;;;;;0.60;0.50;;;;;;;7.71;34.22;98025.34;1695127;83;21187;-66
2021/04/08 09:18:30;;;;;;;1.45;0.80;;;;;;;8.04;33.92;98018.74;1694623;83;21249;-67
2021/04/08 09:20:58;;;;;;;0.47;0.47;;;;;;;8.36;30.94;98017.89;1694925;84;21140;-65
2021/04/08 09:23:27;;;;;;;3.08;0.70;;;;;;;8.60;32.69;98024.88;1694263;83;21156;-66
2021/04/08 09:25:57;;;;;;;1.02;0.55;;;;;;;8.90;32.31;98031.38;1649327;85;21209;-66
2021/04/08 09:28:31;;;;;;;1.35;0.55;;;;;;;9.14;31.51;98028.45;1633348;85;21177;-65
2021/04/08 09:33:45;;;;;;;0.82;0.40;;;;;;;9.76;31.33;98035.11;1766798;79;21177;-64
2021/04/08 09:36:25;;;;;;;0.25;0.25;;;;;;;10.04;29.48;98047.25;1688524;84;21190;-67
2021/04/08 09:39:22;;;;;;;2.83;0.70;;;;;;;10.27;29.42;98033.55;1686058;83;21604;-66
2021/04/08 09:42:01;;;;;;;1.12;0.70;;;;;;;10.56;31.81;98020.02;1742571;81;21153;-65
2021/04/08 09:44:29;;;;;;;2.05;0.75;;;;;;;10.49;29.44;98021.55;1716380;81;21210;-65
2021/04/08 09:47:00;;;;;;;0.62;0.25;;;;;;;10.81;28.12;98018.11;1718369;81;21159;-64
2021/04/08 09:49:43;;;;;;;2.12;0.70;;;;;;;11.16;27.03;98026.97;1742000;80;21175;-65
2021/04/08 09:52:13;;;;;;;0.40;0.40;;;;;;;11.25;28.59;98016.51;1736636;81;21163;-65
2021/04/08 09:54:55;;;;;;;0.50;0.50;;;;;;;11.21;28.20;98025.56;1748915;81;21688;-65
2021/04/08 09:57:41;;;;;;;0.55;0.30;;;;;;;11.05;28.63;98023.27;1730201;81;21143;-65
2021/04/08 10:03:34;;;;;;;1.77;0.60;;;;;;;10.69;28.10;98025.73;1702787;81;21180;-66
2021/04/08 10:06:45;;;;;;;0.82;0.42;;;;;;;10.86;26.86;98044.93;1691926;82;21143;-65
2021/04/08 10:09:17;;;;;;;0.55;0.40;;;;;;;11.15;27.83;98032.65;1669175;84;21177;-66
2021/04/08 10:11:46;;;;;;;0.55;0.50;;;;;;;11.32;26.21;98038.86;1671361;83;21593;-66
2021/04/08 10:14:19;;;;;;;0.17;0.17;;;;;;;11.58;24.45;98046.77;1682244;84;21232;-65
2021/04/08 10:17:07;;;;;;;0.75;0.42;;;;;;;11.76;23.98;98043.73;1673288;84;21122;-66
2021/04/08 10:19:43;;;;;;;0.37;0.23;;;;;;;11.86;22.21;98036.20;1712975;82;21548;-66
2021/04/08 10:22:13;;;;;;;2.80;0.50;;;;;;;12.24;21.13;98034.23;1699670;83;21261;-66
2021/04/08 10:24:44;;;;;;;0.62;0.30;;;;;;;12.46;20.86;98032.43;1723720;83;21187;-66
2021/04/08 10:27:27;;;;;;;0.95;0.50;;;;;;;12.56;24.39;98038.38;1694509;82;21684;-65
2021/04/08 10:29:53;;;;;;;0.30;0.28;;;;;;;12.34;23.33;98037.55;1656379;84;21133;-65
2021/04/08 10:32:36;;;;;;;0.50;0.50;;;;;;;12.57;25.13;98036.08;1708197;82;21615;-65
2021/04/08 10:35:09;;;;;;;0.62;0.40;;;;;;;11.82;20.09;98052.26;1707416;83;21163;-65
2021/04/08 10:37:37;;;;;;;0.57;0.50;;;;;;;11.97;21.54;98047.34;1701482;83;21184;-66
2021/04/08 10:40:26;;;;;;;1.32;0.60;;;;;;;12.20;23.83;98053.73;1715300;83;21192;-65
2021/04/08 10:43:13;;;;;;;0.50;0.50;;;;;;;12.49;22.73;98043.05;1669887;85;21155;-65
2021/04/08 10:45:55;;;;;;;0.57;0.50;;;;;;;13.03;24.45;98049.71;1663169;85;21174;-65
2021/04/08 10:48:26;;;;;;;0.60;0.40;;;;;;;13.32;23.18;98046.27;1664313;85;21195;-65
2021/04/08 10:53:46;;;;;;;0.42;0.42;;;;;;;13.91;21.35;98050.98;1683792;82;21209;-66
2021/04/08 10:56:16;;;;;;;1.72;0.70;;;;;;;14.63;24.94;98043.16;1722821;82;21218;-66
2021/04/08 10:58:45;;;;;;;0.70;0.55;;;;;;;14.98;21.87;98047.67;1759180;80;21138;-67
2021/04/08 11:01:17;;;;;;;1.72;0.68;;;;;;;15.14;23.00;98062.80;1731085;81;21149;-66
2021/04/08 11:03:45;;;;;;;1.62;0.57;;;;;;;14.71;18.57;98048.85;1719991;80;21245;-67
2021/04/08 11:06:22;;;;;;;0.80;0.60;;;;;;;14.56;20.93;98052.64;1729054;81;21139;-67
2021/04/08 11:08:50;;;;;;;0.75;0.53;;;;;;;14.64;19.88;98043.48;1744706;80;21583;-67
2021/04/08 11:11:34;;;;;;;11.53;6.05;;;;;;;14.62;22.98;98052.00;1701927;82;21158;-67
2021/04/08 11:14:03;;;;;;;24.63;12.63;;;;;;;14.19;22.19;98031.42;1705647;82;21180;-70
2021/04/08 11:16:32;;;;;;;3.00;2.08;;;;;;;13.74;23.21;98032.68;1705865;82;21705;-66
2021/04/08 11:19:02;;;;;;;1.72;1.27;;;;;;;13.16;21.18;98049.63;1714739;81;21181;-66
2021/04/08 11:21:30;;;;;;;1.37;1.10;;;;;;;12.86;21.05;98037.08;1707217;81;21164;-66
2021/04/08 11:23:58;;;;;;;0.98;0.75;;;;;;;12.56;20.07;98054.01;1690582;82;21245;-66
2021/04/08 11:26:26;;;;;;;0.40;0.40;;;;;;;12.32;23.82;98049.92;1724601;81;21242;-66
2021/04/08 11:28:59;;;;;;;0.90;0.42;;;;;;;12.09;23.91;98048.28;1734205;81;21162;-66
2021/04/08 11:31:27;;;;;;;1.45;0.80;;;;;;;11.80;24.01;98047.67;1740424;80;21221;-66
2021/04/08 11:33:57;;;;;;;1.17;0.78;;;;;;;11.53;24.47;98064.11;1731309;82;21170;-66
2021/04/08 11:36:28;;;;;;;1.95;0.75;;;;;;;11.33;25.60;98045.67;1727580;82;21225;-67
2021/04/08 11:38:56;;;;;;;1.00;0.78;;;;;;;10.97;25.39;98068.64;1739761;81;21167;-66
2021/04/08 11:41:28;;;;;;;1.85;0.70;;;;;;;10.32;25.64;98096.23;1732808;81;21196;-65
2021/04/08 11:43:56;;;;;;;0.78;0.42;;;;;;;10.29;26.27;98075.75;1753446;80;21149;-67
2021/04/08 11:46:35;;;;;;;0.80;0.60;;;;;;;10.10;27.18;98073.95;1752887;81;21154;-66
2021/04/08 11:49:17;;;;;;;0.72;0.60;;;;;;;10.01;27.61;98057.91;1756487;81;21317;-65
2021/04/08 11:51:48;;;;;;;1.25;0.65;;;;;;;10.51;28.37;98053.37;1755423;81;21158;-65
2021/04/08 11:54:18;;;;;;;2.67;0.60;;;;;;;11.14;26.60;98051.80;1702572;82;21790;-67
2021/04/08 11:56:46;;;;;;;0.75;0.47;;;;;;;12.04;26.02;98047.90;1709331;83;21213;-66
2021/04/08 11:59:21;;;;;;;0.65;0.50;;;;;;;12.78;24.76;98053.48;1730236;82;21187;-66
2021/04/08 12:01:53;;;;;;;2.27;0.80;;;;;;;12.89;22.69;98049.79;1731740;82;21167;-67
2021/04/08 12:04:28;;;;;;;3.58;0.65;;;;;;;12.59;21.99;98045.88;1723307;82;21657;-66
2021/04/08 12:07:07;;;;;;;0.37;0.30;;;;;;;13.01;23.54;98056.86;1720962;82;21217;-66
2021/04/08 12:09:43;;;;;;;1.30;0.70;;;;;;;12.61;23.52;98047.83;1734329;82;21209;-67
2021/04/08 12:12:12;;;;;;;1.12;0.62;;;;;;;12.54;23.76;98037.70;1732891;82;21192;-65
2021/04/08 12:14:57;;;;;;;0.40;0.30;;;;;;;12.70;24.02;98043.02;1734516;81;21252;-65
2021/04/08 12:17:27;;;;;;;0.50;0.50;;;;;;;13.20;23.82;98033.18;1707475;82;21665;-64
2021/04/08 12:20:19;;;;;;;0.40;0.40;;;;;;;13.58;24.43;98039.16;1714072;83;21177;-64
2021/04/08 12:23:12;;;;;;;;;;;;;;;13.93;21.86;98034.17;1804315;77;22408;-69
2021/04/08 12:25:47;;;;;;;1.20;0.80;;;;;;;14.00;21.62;98058.67;1798455;80;20133;-70
2021/04/08 12:28:17;;;;;;;2.95;0.93;;;;;;;13.77;23.52;98061.58;1800815;79;21148;-65
2021/04/08 12:30:56;;;;;;;1.25;0.70;;;;;;;13.55;22.90;98045.19;1800485;79;21147;-64
2021/04/08 12:33:18;;;;;;;1.25;0.60;;;;;;;13.34;22.70;98055.25;1799822;79;21116;-64
2021/04/08 12:35:52;;;;;;;1.37;0.80;;;;;;;13.32;24.47;98042.36;1800541;80;21153;-69
2021/04/08 12:38:22;;;;;;;0.82;0.47;;;;;;;13.21;23.03;98058.30;1800466;79;21144;-69
2021/04/08 12:40:52;;;;;;;1.55;0.45;;;;;;;13.26;23.75;98048.22;1815677;78;21206;-69
2021/04/08 12:43:20;;;;;;;1.05;0.50;;;;;;;13.22;24.04;98037.28;1806671;78;21163;-70
2021/04/08 12:45:49;;;;;;;1.10;0.70;;;;;;;13.37;25.49;98047.11;1812255;78;21168;-70
2021/04/08 12:48:18;;;;;;;0.62;0.50;;;;;;;13.52;25.11;98050.73;1812444;78;21725;-69
2021/04/08 12:50:48;;;;;;;1.40;0.70;;;;;;;13.62;24.64;98044.88;1806287;78;21171;-69
2021/04/08 12:53:19;;;;;;;1.02;0.60;;;;;;;13.68;24.81;98063.83;1810317;78;21537;-69
2021/04/08 12:56:13;;;;;;;0.98;0.75;;;;;;;13.98;24.52;98061.09;1806378;78;21607;-70
2021/04/08 12:58:44;;;;;;;1.00;0.62;;;;;;;13.81;23.95;98066.80;1702514;83;21174;-70
2021/04/08 13:04:38;;;;;;;1.02;0.68;;;;;;;12.89;25.53;98060.22;1703276;83;21156;-68